sensor_id;sensor_type;location;lat;lon;timestamp;P1;durP1;ratioP1;P2;durP2;ratioP2
77278;SDS011;66332;50.436;15.378;2023-02-15T05:04:14;48.00;;;19.45;;
77278;SDS011;66332;50.436;15.378;2023-02-15T05:08:55;38.33;;;15.45;;
77278;SDS011;66332;50.436;15.378;2023-02-15T05:13:39;50.30;;;18.13;;
77278;SDS011;66332;50.436;15.378;2023-02-15T05:18:20;41.60;;;16.75;;
77278;SDS011;66332;50.436;15.378;2023-02-15T05:23:02;43.55;;;16.70;;
77278;SDS011;66332;50.436;15.378;2023-02-15T05:27:43;39.50;;;15.57;;
77278;SDS011;66332;50.436;15.378;2023-02-15T05:32:42;38.78;;;15.13;;
77278;SDS011;66332;50.436;15.378;2023-02-15T05:37:23;47.33;;;18.85;;
77278;SDS011;66332;50.436;15.378;2023-02-15T05:42:04;44.28;;;18.25;;
77278;SDS011;66332;50.436;15.378;2023-02-15T05:46:45;45.10;;;17.73;;
77278;SDS011;66332;50.436;15.378;2023-02-15T05:51:26;43.50;;;17.42;;
77278;SDS011;66332;50.436;15.378;2023-02-15T05:56:07;42.72;;;18.70;;
77278;SDS011;66332;50.436;15.378;2023-02-15T06:00:50;46.28;;;18.27;;
77278;SDS011;66332;50.436;15.378;2023-02-15T06:05:31;48.03;;;17.80;;
77278;SDS011;66332;50.436;15.378;2023-02-15T06:14:56;38.95;;;16.20;;
77278;SDS011;66332;50.436;15.378;2023-02-15T06:19:37;34.85;;;15.30;;
77278;SDS011;66332;50.436;15.378;2023-02-15T06:24:18;39.35;;;15.90;;
77278;SDS011;66332;50.436;15.378;2023-02-15T06:28:58;40.50;;;16.73;;
77278;SDS011;66332;50.436;15.378;2023-02-15T06:33:39;42.60;;;16.58;;
77278;SDS011;66332;50.436;15.378;2023-02-15T06:38:20;43.13;;;16.13;;
77278;SDS011;66332;50.436;15.378;2023-02-15T06:43:01;38.90;;;18.20;;
77278;SDS011;66332;50.436;15.378;2023-02-15T06:47:42;34.33;;;13.65;;
77278;SDS011;66332;50.436;15.378;2023-02-15T06:52:23;34.53;;;14.98;;
77278;SDS011;66332;50.436;15.378;2023-02-15T06:57:04;33.40;;;15.63;;
77278;SDS011;66332;50.436;15.378;2023-02-15T07:01:45;33.22;;;14.15;;
77278;SDS011;66332;50.436;15.378;2023-02-15T07:06:26;35.55;;;14.63;;
77278;SDS011;66332;50.436;15.378;2023-02-15T07:11:07;37.20;;;15.43;;
77278;SDS011;66332;50.436;15.378;2023-02-15T07:16:06;39.35;;;16.95;;
77278;SDS011;66332;50.436;15.378;2023-02-15T07:20:47;37.88;;;16.27;;
77278;SDS011;66332;50.436;15.378;2023-02-15T07:25:28;48.20;;;22.23;;
77278;SDS011;66332;50.436;15.378;2023-02-15T07:30:09;42.83;;;17.60;;
77278;SDS011;66332;50.436;15.378;2023-02-15T07:34:52;43.00;;;18.70;;
77278;SDS011;66332;50.436;15.378;2023-02-15T07:39:33;41.38;;;17.02;;
77278;SDS011;66332;50.436;15.378;2023-02-15T07:44:14;42.97;;;16.88;;
77278;SDS011;66332;50.436;15.378;2023-02-15T07:48:56;41.47;;;17.38;;
77278;SDS011;66332;50.436;15.378;2023-02-15T07:53:38;46.53;;;18.88;;
77278;SDS011;66332;50.436;15.378;2023-02-15T07:58:19;43.45;;;16.73;;
77278;SDS011;66332;50.436;15.378;2023-02-15T08:03:00;45.20;;;18.05;;
77278;SDS011;66332;50.436;15.378;2023-02-15T08:07:56;52.63;;;19.05;;
77278;SDS011;66332;50.436;15.378;2023-02-15T08:12:37;49.60;;;19.35;;
77278;SDS011;66332;50.436;15.378;2023-02-15T08:17:17;45.08;;;16.15;;
77278;SDS011;66332;50.436;15.378;2023-02-15T08:21:59;42.72;;;15.77;;
77278;SDS011;66332;50.436;15.378;2023-02-15T08:26:41;44.05;;;17.02;;
77278;SDS011;66332;50.436;15.378;2023-02-15T08:31:23;46.83;;;16.80;;
77278;SDS011;66332;50.436;15.378;2023-02-15T08:40:45;54.40;;;20.08;;
77278;SDS011;66332;50.436;15.378;2023-02-15T08:45:26;54.03;;;18.00;;
77278;SDS011;66332;50.436;15.378;2023-02-15T08:50:07;44.20;;;17.05;;
77278;SDS011;66332;50.436;15.378;2023-02-15T08:54:48;41.40;;;15.10;;
77278;SDS011;66332;50.436;15.378;2023-02-15T08:59:29;40.38;;;16.23;;
77278;SDS011;66332;50.436;15.378;2023-02-15T09:04:10;40.47;;;15.85;;
77278;SDS011;66332;50.436;15.378;2023-02-15T09:08:53;45.30;;;16.30;;
77278;SDS011;66332;50.436;15.378;2023-02-15T09:13:34;38.60;;;16.80;;
77278;SDS011;66332;50.436;15.378;2023-02-15T09:18:16;44.15;;;16.10;;
77278;SDS011;66332;50.436;15.378;2023-02-15T09:22:57;36.55;;;15.32;;
77278;SDS011;66332;50.436;15.378;2023-02-15T09:27:38;44.92;;;16.20;;
77278;SDS011;66332;50.436;15.378;2023-02-15T09:32:20;36.22;;;14.90;;
77278;SDS011;66332;50.436;15.378;2023-02-15T09:37:02;38.30;;;13.88;;
77278;SDS011;66332;50.436;15.378;2023-02-15T09:51:49;36.85;;;14.43;;
77278;SDS011;66332;50.436;15.378;2023-02-15T10:11:15;50.13;;;19.77;;
77278;SDS011;66332;50.436;15.378;2023-02-15T10:26:20;41.75;;;14.77;;
77278;SDS011;66332;50.436;15.378;2023-02-15T10:31:07;40.13;;;15.57;;
77278;SDS011;66332;50.436;15.378;2023-02-15T10:56:29;43.05;;;14.95;;
77278;SDS011;66332;50.436;15.378;2023-02-15T11:01:32;38.05;;;14.40;;
77278;SDS011;66332;50.436;15.378;2023-02-15T11:06:19;41.35;;;16.10;;
77278;SDS011;66332;50.436;15.378;2023-02-15T11:11:03;45.85;;;17.05;;
77278;SDS011;66332;50.436;15.378;2023-02-15T11:15:52;40.90;;;15.00;;
77278;SDS011;66332;50.436;15.378;2023-02-15T11:20:45;47.25;;;17.00;;
77278;SDS011;66332;50.436;15.378;2023-02-15T11:25:31;45.15;;;17.58;;
77278;SDS011;66332;50.436;15.378;2023-02-15T11:30:15;43.67;;;16.08;;
77278;SDS011;66332;50.436;15.378;2023-02-15T11:35:02;41.13;;;15.05;;
77278;SDS011;66332;50.436;15.378;2023-02-15T11:39:55;48.45;;;17.73;;
77278;SDS011;66332;50.436;15.378;2023-02-15T11:44:42;47.40;;;16.48;;
77278;SDS011;66332;50.436;15.378;2023-02-15T11:49:54;50.03;;;17.92;;
77278;SDS011;66332;50.436;15.378;2023-02-15T11:54:36;46.25;;;18.15;;
77278;SDS011;66332;50.436;15.378;2023-02-15T11:59:26;43.28;;;17.15;;
77278;SDS011;66332;50.436;15.378;2023-02-15T12:14:22;49.53;;;17.38;;
77278;SDS011;66332;50.436;15.378;2023-02-15T12:19:03;49.03;;;17.65;;
77278;SDS011;66332;50.436;15.378;2023-02-15T12:23:47;47.38;;;17.17;;
77278;SDS011;66332;50.436;15.378;2023-02-15T12:28:39;47.55;;;18.17;;
77278;SDS011;66332;50.436;15.378;2023-02-15T12:33:27;41.92;;;16.27;;
77278;SDS011;66332;50.436;15.378;2023-02-15T12:42:50;46.08;;;17.90;;
77278;SDS011;66332;50.436;15.378;2023-02-15T12:47:31;47.63;;;17.48;;
77278;SDS011;66332;50.436;15.378;2023-02-15T12:57:22;45.35;;;18.40;;
77278;SDS011;66332;50.436;15.378;2023-02-15T13:02:06;51.45;;;17.48;;
77278;SDS011;66332;50.436;15.378;2023-02-15T13:07:01;48.45;;;16.67;;
77278;SDS011;66332;50.436;15.378;2023-02-15T13:11:53;48.70;;;18.55;;
77278;SDS011;66332;50.436;15.378;2023-02-15T13:16:35;46.65;;;18.38;;
77278;SDS011;66332;50.436;15.378;2023-02-15T13:21:19;46.58;;;18.33;;
77278;SDS011;66332;50.436;15.378;2023-02-15T13:26:05;54.25;;;18.92;;
77278;SDS011;66332;50.436;15.378;2023-02-15T13:30:55;42.83;;;17.13;;
77278;SDS011;66332;50.436;15.378;2023-02-15T13:36:19;48.90;;;17.98;;
77278;SDS011;66332;50.436;15.378;2023-02-15T13:56:29;46.63;;;17.60;;
77278;SDS011;66332;50.436;15.378;2023-02-15T14:11:19;47.90;;;18.35;;
77278;SDS011;66332;50.436;15.378;2023-02-15T14:16:17;44.13;;;16.52;;
77278;SDS011;66332;50.436;15.378;2023-02-15T14:21:16;46.40;;;17.30;;
77278;SDS011;66332;50.436;15.378;2023-02-15T14:26:03;51.63;;;20.08;;
77278;SDS011;66332;50.436;15.378;2023-02-15T14:30:50;46.92;;;18.38;;
77278;SDS011;66332;50.436;15.378;2023-02-15T14:35:31;45.50;;;17.35;;
77278;SDS011;66332;50.436;15.378;2023-02-15T14:40:24;49.05;;;18.42;;
77278;SDS011;66332;50.436;15.378;2023-02-15T14:45:55;52.28;;;18.75;;
77278;SDS011;66332;50.436;15.378;2023-02-15T14:50:42;49.40;;;18.17;;
77278;SDS011;66332;50.436;15.378;2023-02-15T14:55:37;41.97;;;16.02;;
77278;SDS011;66332;50.436;15.378;2023-02-15T15:00:36;53.50;;;19.33;;
77278;SDS011;66332;50.436;15.378;2023-02-15T15:15:00;49.00;;;18.48;;
77278;SDS011;66332;50.436;15.378;2023-02-15T15:29:38;51.35;;;18.33;;
77278;SDS011;66332;50.436;15.378;2023-02-15T15:49:42;54.28;;;19.02;;
77278;SDS011;66332;50.436;15.378;2023-02-15T15:54:24;52.85;;;19.42;;
77278;SDS011;66332;50.436;15.378;2023-02-15T15:59:07;48.35;;;18.10;;
77278;SDS011;66332;50.436;15.378;2023-02-15T16:03:58;61.22;;;21.95;;
77278;SDS011;66332;50.436;15.378;2023-02-15T16:08:40;52.63;;;20.27;;
77278;SDS011;66332;50.436;15.378;2023-02-15T16:13:21;63.58;;;22.77;;
77278;SDS011;66332;50.436;15.378;2023-02-15T16:18:02;60.70;;;20.92;;
77278;SDS011;66332;50.436;15.378;2023-02-15T16:22:48;61.55;;;23.02;;
77278;SDS011;66332;50.436;15.378;2023-02-15T16:27:38;71.90;;;25.55;;
77278;SDS011;66332;50.436;15.378;2023-02-15T16:32:23;53.45;;;21.52;;
77278;SDS011;66332;50.436;15.378;2023-02-15T16:37:24;74.47;;;24.80;;
77278;SDS011;66332;50.436;15.378;2023-02-15T16:42:08;61.67;;;24.58;;
77278;SDS011;66332;50.436;15.378;2023-02-15T16:46:53;66.93;;;26.50;;
77278;SDS011;66332;50.436;15.378;2023-02-15T16:51:35;76.22;;;29.33;;
77278;SDS011;66332;50.436;15.378;2023-02-15T16:56:26;58.88;;;22.63;;
77278;SDS011;66332;50.436;15.378;2023-02-15T17:01:14;63.78;;;22.27;;
77278;SDS011;66332;50.436;15.378;2023-02-15T17:10:39;63.58;;;23.10;;
77278;SDS011;66332;50.436;15.378;2023-02-15T17:15:35;62.72;;;23.73;;
77278;SDS011;66332;50.436;15.378;2023-02-15T17:20:18;60.78;;;22.13;;
77278;SDS011;66332;50.436;15.378;2023-02-15T17:25:04;58.55;;;21.98;;
77278;SDS011;66332;50.436;15.378;2023-02-15T17:29:46;57.90;;;21.77;;
77278;SDS011;66332;50.436;15.378;2023-02-15T17:34:48;60.47;;;22.75;;
77278;SDS011;66332;50.436;15.378;2023-02-15T17:39:38;55.05;;;20.90;;
77278;SDS011;66332;50.436;15.378;2023-02-15T17:49:01;58.22;;;21.05;;
77278;SDS011;66332;50.436;15.378;2023-02-15T17:58:43;67.80;;;26.42;;
77278;SDS011;66332;50.436;15.378;2023-02-15T18:03:25;54.33;;;21.45;;
77278;SDS011;66332;50.436;15.378;2023-02-15T18:08:47;72.72;;;26.35;;
77278;SDS011;66332;50.436;15.378;2023-02-15T18:13:46;60.30;;;23.58;;
77278;SDS011;66332;50.436;15.378;2023-02-15T18:18:28;54.13;;;20.73;;
77278;SDS011;66332;50.436;15.378;2023-02-15T18:23:13;65.20;;;21.70;;
77278;SDS011;66332;50.436;15.378;2023-02-15T18:27:54;63.15;;;21.50;;
77278;SDS011;66332;50.436;15.378;2023-02-15T18:32:35;67.15;;;23.20;;
77278;SDS011;66332;50.436;15.378;2023-02-15T18:37:19;88.50;;;35.08;;
77278;SDS011;66332;50.436;15.378;2023-02-15T18:42:23;90.85;;;33.30;;
77278;SDS011;66332;50.436;15.378;2023-02-15T18:47:08;74.55;;;25.85;;
77278;SDS011;66332;50.436;15.378;2023-02-15T18:51:50;59.20;;;19.20;;
77278;SDS011;66332;50.436;15.378;2023-02-15T18:56:32;60.50;;;20.95;;
77278;SDS011;66332;50.436;15.378;2023-02-15T19:01:16;66.72;;;22.98;;
77278;SDS011;66332;50.436;15.378;2023-02-15T19:06:07;59.03;;;20.83;;
77278;SDS011;66332;50.436;15.378;2023-02-15T19:10:54;61.42;;;20.92;;
77278;SDS011;66332;50.436;15.378;2023-02-15T19:15:36;59.75;;;21.35;;
77278;SDS011;66332;50.436;15.378;2023-02-15T19:20:18;67.80;;;24.83;;
77278;SDS011;66332;50.436;15.378;2023-02-15T19:25:01;61.47;;;23.23;;
77278;SDS011;66332;50.436;15.378;2023-02-15T19:29:44;63.30;;;23.23;;
77278;SDS011;66332;50.436;15.378;2023-02-15T19:34:26;60.88;;;23.65;;
77278;SDS011;66332;50.436;15.378;2023-02-15T19:39:09;61.83;;;23.60;;
77278;SDS011;66332;50.436;15.378;2023-02-15T19:44:12;68.72;;;23.33;;
77278;SDS011;66332;50.436;15.378;2023-02-15T19:48:57;61.80;;;23.33;;
77278;SDS011;66332;50.436;15.378;2023-02-15T19:53:38;68.78;;;23.27;;
77278;SDS011;66332;50.436;15.378;2023-02-15T19:58:20;71.32;;;26.70;;
77278;SDS011;66332;50.436;15.378;2023-02-15T20:03:01;69.25;;;25.13;;
77278;SDS011;66332;50.436;15.378;2023-02-15T20:07:44;68.50;;;24.45;;
77278;SDS011;66332;50.436;15.378;2023-02-15T20:12:27;62.20;;;23.65;;
77278;SDS011;66332;50.436;15.378;2023-02-15T20:17:09;70.88;;;24.58;;
77278;SDS011;66332;50.436;15.378;2023-02-15T20:21:49;70.32;;;25.83;;
77278;SDS011;66332;50.436;15.378;2023-02-15T20:26:34;65.13;;;23.20;;
77278;SDS011;66332;50.436;15.378;2023-02-15T20:31:16;79.63;;;27.77;;
77278;SDS011;66332;50.436;15.378;2023-02-15T20:35:59;75.82;;;26.00;;
77278;SDS011;66332;50.436;15.378;2023-02-15T20:40:40;75.20;;;27.77;;
77278;SDS011;66332;50.436;15.378;2023-02-15T20:45:42;87.00;;;30.23;;
77278;SDS011;66332;50.436;15.378;2023-02-15T20:50:25;75.13;;;26.08;;
77278;SDS011;66332;50.436;15.378;2023-02-15T20:55:15;70.82;;;25.50;;
77278;SDS011;66332;50.436;15.378;2023-02-15T20:59:58;69.30;;;25.75;;
77278;SDS011;66332;50.436;15.378;2023-02-15T21:04:39;67.85;;;24.15;;
77278;SDS011;66332;50.436;15.378;2023-02-15T21:09:21;68.72;;;25.15;;
77278;SDS011;66332;50.436;15.378;2023-02-15T21:14:03;75.05;;;26.77;;
77278;SDS011;66332;50.436;15.378;2023-02-15T21:18:44;59.90;;;23.17;;
77278;SDS011;66332;50.436;15.378;2023-02-15T21:23:29;71.32;;;25.20;;
77278;SDS011;66332;50.436;15.378;2023-02-15T21:28:16;71.15;;;26.23;;
77278;SDS011;66332;50.436;15.378;2023-02-15T21:33:02;74.40;;;27.50;;
77278;SDS011;66332;50.436;15.378;2023-02-15T21:37:44;69.53;;;24.45;;
77278;SDS011;66332;50.436;15.378;2023-02-15T21:42:26;78.03;;;28.45;;
77278;SDS011;66332;50.436;15.378;2023-02-15T21:47:30;75.88;;;28.00;;
77278;SDS011;66332;50.436;15.378;2023-02-15T21:52:29;76.10;;;25.73;;
77278;SDS011;66332;50.436;15.378;2023-02-15T21:57:11;74.95;;;27.27;;
77278;SDS011;66332;50.436;15.378;2023-02-15T22:01:54;68.22;;;25.25;;
77278;SDS011;66332;50.436;15.378;2023-02-15T22:06:35;61.03;;;23.95;;
77278;SDS011;66332;50.436;15.378;2023-02-15T22:11:17;67.07;;;24.17;;
77278;SDS011;66332;50.436;15.378;2023-02-15T22:16:02;67.15;;;24.60;;
77278;SDS011;66332;50.436;15.378;2023-02-15T22:20:43;60.65;;;23.45;;
77278;SDS011;66332;50.436;15.378;2023-02-15T22:25:25;57.85;;;22.27;;
77278;SDS011;66332;50.436;15.378;2023-02-15T22:35:18;64.18;;;23.30;;
77278;SDS011;66332;50.436;15.378;2023-02-15T22:40:01;63.92;;;24.52;;
77278;SDS011;66332;50.436;15.378;2023-02-15T22:44:42;62.05;;;22.52;;
77278;SDS011;66332;50.436;15.378;2023-02-15T22:49:23;58.72;;;21.60;;
77278;SDS011;66332;50.436;15.378;2023-02-15T22:54:04;60.90;;;20.58;;
